Time;durP1;ratioP1;P1;durP2;ratioP2;P2;SDS_P1;SDS_P2;PMS_P1;PMS_P2;Temp;Humidity;BMP_temperature;BMP_pressure;BME280_temperature;BME280_humidity;BME280_pressure;Samples;Min_cycle;Max_cycle;Signal;HPM_P1;HPM_P2
2021/07/14 00:00:04;;;;;;;35.05;23.25;;;19.70;99.90;;;;;;4959954;28;20472;-70
2021/07/14 00:02:29;;;;;;;25.95;22.15;;;19.70;99.90;;;;;;4989118;28;20503;-69
2021/07/14 00:04:55;;;;;;;28.58;21.52;;;19.70;99.90;;;;;;4994371;28;20098;-85
2021/07/14 00:07:20;;;;;;;25.63;21.73;;;19.70;99.90;;;;;;4987939;28;20027;-85
2021/07/14 00:09:46;;;;;;;25.08;21.45;;;19.70;99.90;;;;;;4986994;28;20498;-85
2021/07/14 00:12:14;;;;;;;27.95;20.77;;;19.70;99.90;;;;;;4993889;28;20085;-70
2021/07/14 00:22:31;;;;;;;24.42;21.50;;;19.80;99.90;;;;;;4982491;28;20559;-69
2021/07/14 00:24:58;;;;;;;31.35;23.45;;;19.70;99.90;;;;;;4993829;28;20430;-69
2021/07/14 00:27:24;;;;;;;29.05;22.00;;;19.70;99.90;;;;;;4965227;28;20061;-69
2021/07/14 00:29:55;;;;;;;26.85;20.75;;;19.80;99.90;;;;;;4975083;28;20042;-69
2021/07/14 00:32:22;;;;;;;25.25;20.63;;;19.70;99.90;;;;;;4979908;28;20037;-85
2021/07/14 00:34:47;;;;;;;27.38;21.67;;;19.70;99.90;;;;;;4992407;28;20502;-70
2021/07/14 00:37:14;;;;;;;23.20;18.73;;;19.70;99.90;;;;;;4992408;28;20121;-70
2021/07/14 00:39:41;;;;;;;24.05;19.85;;;19.70;99.90;;;;;;4980440;28;20018;-70
2021/07/14 00:42:08;;;;;;;23.23;19.33;;;19.80;99.90;;;;;;4985267;28;20029;-70
2021/07/14 00:44:34;;;;;;;25.80;19.45;;;19.70;99.90;;;;;;4980450;28;20023;-84
2021/07/14 00:47:01;;;;;;;26.70;20.35;;;19.70;99.90;;;;;;4974167;28;20427;-69
2021/07/14 00:49:28;;;;;;;23.63;18.95;;;19.70;99.90;;;;;;4974438;28;20128;-70
2021/07/14 00:51:54;;;;;;;21.05;17.67;;;19.70;99.90;;;;;;4974532;28;20440;-87
2021/07/14 00:54:20;;;;;;;20.40;17.85;;;19.70;99.90;;;;;;4989438;28;20097;-69
2021/07/14 00:56:47;;;;;;;22.92;19.40;;;19.80;99.90;;;;;;4964117;28;20031;-70
2021/07/14 00:59:12;;;;;;;27.63;20.50;;;19.80;99.90;;;;;;4993317;28;20353;-69
2021/07/14 01:01:38;;;;;;;23.15;18.40;;;19.80;99.90;;;;;;4964337;28;20049;-69
2021/07/14 01:04:17;;;;;;;26.98;19.20;;;19.70;99.90;;;;;;4974155;28;20033;-69
2021/07/14 01:06:53;;;;;;;22.13;17.48;;;19.80;99.90;;;;;;4986938;28;20034;-69
2021/07/14 01:09:27;;;;;;;24.77;17.77;;;19.80;99.90;;;;;;4991417;28;20066;-74
2021/07/14 01:12:00;;;;;;;19.20;17.15;;;19.80;99.90;;;;;;4993691;28;20034;-72
2021/07/14 01:14:40;;;;;;;18.38;16.40;;;19.80;99.90;;;;;;4974162;28;20383;-70
2021/07/14 01:17:11;;;;;;;24.92;18.23;;;19.70;99.90;;;;;;4973903;28;20038;-69
2021/07/14 01:19:58;;;;;;;23.20;19.10;;;19.70;99.90;;;;;;4974554;28;20090;-70
2021/07/14 01:22:56;;;;;;;22.02;17.52;;;19.70;99.90;;;;;;4973360;28;20054;-81
2021/07/14 01:25:29;;;;;;;24.40;18.52;;;19.70;99.90;;;;;;4974003;28;20534;-70
2021/07/14 01:27:58;;;;;;;22.13;18.02;;;19.70;99.90;;;;;;4956141;28;20023;-70
2021/07/14 01:30:24;;;;;;;20.42;17.70;;;19.70;99.90;;;;;;4973580;28;20038;-72
2021/07/14 01:32:52;;;;;;;22.55;18.88;;;19.70;99.90;;;;;;4974336;28;20034;-85
2021/07/14 01:35:22;;;;;;;25.08;19.65;;;19.70;99.90;;;;;;4961151;28;20033;-70
2021/07/14 01:37:49;;;;;;;21.45;18.50;;;19.70;99.90;;;;;;4992737;28;20038;-69
2021/07/14 01:40:16;;;;;;;23.35;17.83;;;19.60;99.90;;;;;;4967418;28;20113;-70
2021/07/14 01:42:46;;;;;;;26.70;18.35;;;19.60;99.90;;;;;;4976666;28;20035;-86
2021/07/14 01:45:12;;;;;;;20.50;18.40;;;19.60;99.90;;;;;;4985170;28;20026;-69
2021/07/14 01:47:40;;;;;;;25.48;19.98;;;19.60;99.90;;;;;;4993367;28;20026;-69
2021/07/14 01:50:06;;;;;;;21.85;18.55;;;19.60;99.90;;;;;;4973196;28;20054;-68
2021/07/14 01:52:33;;;;;;;21.67;18.52;;;19.50;99.90;;;;;;4956638;28;20447;-69
2021/07/14 01:55:03;;;;;;;23.77;19.30;;;19.50;99.90;;;;;;4974951;28;20023;-69
2021/07/14 01:57:32;;;;;;;21.02;18.10;;;19.50;99.90;;;;;;4973276;28;20392;-68
2021/07/14 01:59:58;;;;;;;24.70;18.55;;;19.50;99.90;;;;;;4989625;28;20109;-71
2021/07/14 02:02:28;;;;;;;22.50;18.63;;;19.50;99.90;;;;;;4975039;28;20352;-71
2021/07/14 02:04:55;;;;;;;21.58;18.83;;;19.50;99.90;;;;;;4984478;28;20058;-78
2021/07/14 02:07:28;;;;;;;21.90;19.05;;;19.50;99.90;;;;;;4978946;28;20014;-73
2021/07/14 02:09:55;;;;;;;24.13;19.58;;;19.50;99.90;;;;;;4992225;28;20045;-70
2021/07/14 02:12:27;;;;;;;22.98;18.15;;;19.50;99.90;;;;;;4992447;28;20479;-86
2021/07/14 02:14:58;;;;;;;;;;;19.50;99.90;;;;;;4993495;28;20129;-83
2021/07/14 02:17:28;;;;;;;18.00;15.73;;;19.40;99.90;;;;;;4955757;28;19917;-74
2021/07/14 02:20:00;;;;;;;18.83;16.75;;;19.40;99.90;;;;;;4957541;28;20468;-76
2021/07/14 02:22:27;;;;;;;19.83;16.98;;;19.50;99.90;;;;;;4977601;28;20059;-70
2021/07/14 02:24:53;;;;;;;20.33;15.80;;;19.40;99.90;;;;;;4993692;28;20031;-87
2021/07/14 02:27:19;;;;;;;21.80;17.25;;;19.50;99.90;;;;;;4987470;28;20475;-72
2021/07/14 02:29:47;;;;;;;20.65;17.63;;;19.50;99.90;;;;;;4959971;28;20022;-76
2021/07/14 02:32:15;;;;;;;24.05;18.40;;;19.50;99.90;;;;;;4976391;28;20038;-76
2021/07/14 02:34:43;;;;;;;24.65;18.05;;;19.50;99.90;;;;;;4989082;28;20479;-69
2021/07/14 02:37:10;;;;;;;28.05;19.25;;;19.50;99.90;;;;;;4978642;28;20121;-71
2021/07/14 02:39:36;;;;;;;24.80;19.27;;;19.50;99.90;;;;;;4993869;28;20021;-81
2021/07/14 02:42:07;;;;;;;25.13;20.02;;;19.40;99.90;;;;;;4990919;28;20034;-70
2021/07/14 02:44:39;;;;;;;25.05;20.02;;;19.40;99.90;;;;;;4979160;28;20022;-85
2021/07/14 02:47:05;;;;;;;25.33;20.20;;;19.40;99.90;;;;;;4991590;28;20093;-69
2021/07/14 02:49:32;;;;;;;27.73;20.50;;;19.40;99.90;;;;;;4981759;28;20029;-70
2021/07/14 02:51:59;;;;;;;28.63;20.92;;;19.40;99.90;;;;;;4977067;28;20043;-74
2021/07/14 02:54:28;;;;;;;24.38;19.05;;;19.40;99.90;;;;;;4965941;28;20030;-70
2021/07/14 02:57:02;;;;;;;25.52;20.25;;;19.50;99.90;;;;;;4976908;28;20061;-69
2021/07/14 02:59:34;;;;;;;28.00;22.00;;;19.50;99.90;;;;;;4976263;28;20132;-70
2021/07/14 03:02:01;;;;;;;29.42;20.58;;;19.50;99.90;;;;;;4990480;28;20386;-69
2021/07/14 03:04:32;;;;;;;27.38;20.80;;;19.40;99.90;;;;;;4985465;28;20015;-70
2021/07/14 03:07:02;;;;;;;29.30;20.08;;;19.50;99.90;;;;;;4978093;28;20486;-85
2021/07/14 03:09:37;;;;;;;25.88;20.02;;;19.40;99.90;;;;;;4976779;28;20507;-71
2021/07/14 03:12:13;;;;;;;29.73;21.40;;;19.40;99.90;;;;;;4976130;28;20407;-69
2021/07/14 03:14:44;;;;;;;29.00;22.50;;;19.40;99.90;;;;;;4976839;28;20776;-69
2021/07/14 03:17:11;;;;;;;32.95;22.88;;;19.40;99.90;;;;;;4976165;28;20495;-83
2021/07/14 03:19:37;;;;;;;31.13;21.42;;;19.40;99.90;;;;;;4976468;28;20019;-69
2021/07/14 03:22:04;;;;;;;32.55;24.08;;;19.40;99.90;;;;;;4975437;28;20035;-69
2021/07/14 03:24:30;;;;;;;35.67;23.67;;;19.30;99.90;;;;;;4977495;28;20384;-88
2021/07/14 03:26:56;;;;;;;27.63;21.95;;;19.30;99.90;;;;;;4977388;28;20077;-83
2021/07/14 03:29:24;;;;;;;28.15;22.33;;;19.30;99.90;;;;;;4975419;28;20106;-70
2021/07/14 03:31:51;;;;;;;29.25;21.63;;;19.30;99.90;;;;;;4975275;28;20038;-70
2021/07/14 03:34:16;;;;;;;25.60;20.85;;;19.30;99.90;;;;;;4976344;28;20019;-71
2021/07/14 03:36:43;;;;;;;30.05;21.92;;;19.20;99.90;;;;;;4982762;28;20489;-71
2021/07/14 03:39:10;;;;;;;24.55;21.02;;;19.20;99.90;;;;;;4988121;28;20540;-84
2021/07/14 03:41:37;;;;;;;27.48;22.20;;;19.20;99.90;;;;;;4980716;28;20076;-90
2021/07/14 03:44:03;;;;;;;27.23;22.75;;;19.20;99.90;;;;;;4994960;28;20463;-70
2021/07/14 03:46:29;;;;;;;29.02;22.85;;;19.30;99.90;;;;;;4995559;28;20026;-73
2021/07/14 03:48:55;;;;;;;35.83;23.40;;;19.30;99.90;;;;;;4994373;28;20603;-69
2021/07/14 03:51:23;;;;;;;31.17;24.00;;;19.30;99.90;;;;;;4977535;28;20117;-70
2021/07/14 03:53:51;;;;;;;28.63;23.13;;;19.20;99.90;;;;;;4986985;28;20033;-81
2021/07/14 03:56:17;;;;;;;27.80;22.48;;;19.30;99.90;;;;;;4960093;28;20092;-70
2021/07/14 03:58:44;;;;;;;31.95;24.25;;;19.20;99.90;;;;;;4983623;28;20057;-69
2021/07/14 04:01:12;;;;;;;26.67;23.42;;;19.20;99.90;;;;;;4978803;28;20030;-71
2021/07/14 04:03:39;;;;;;;30.02;23.15;;;19.20;99.90;;;;;;4994166;28;20019;-74
2021/07/14 04:06:07;;;;;;;27.88;23.48;;;19.30;99.90;;;;;;4977371;28;20033;-74
2021/07/14 04:08:47;;;;;;;29.63;22.70;;;19.30;99.90;;;;;;4976774;28;20439;-70
2021/07/14 04:11:14;;;;;;;26.65;21.30;;;19.20;99.90;;;;;;4974746;28;20388;-70
2021/07/14 04:13:41;;;;;;;28.20;20.98;;;19.20;99.90;;;;;;4959022;28;20487;-73
2021/07/14 04:16:07;;;;;;;31.42;21.48;;;19.20;99.90;;;;;;4975659;28;20047;-70
2021/07/14 04:18:32;;;;;;;25.08;19.75;;;19.20;99.90;;;;;;4980665;28;20490;-70
2021/07/14 04:20:58;;;;;;;26.70;19.80;;;19.20;99.90;;;;;;4994721;28;20023;-70
2021/07/14 04:23:24;;;;;;;25.75;20.58;;;19.20;99.90;;;;;;4992134;28;20030;-70
2021/07/14 04:25:49;;;;;;;22.08;18.58;;;19.20;99.90;;;;;;4994761;28;20030;-70
2021/07/14 04:28:15;;;;;;;20.75;17.98;;;19.20;99.90;;;;;;4986908;28;20353;-70
2021/07/14 04:30:41;;;;;;;23.52;18.05;;;19.30;99.90;;;;;;4975383;28;20113;-85
2021/07/14 04:33:06;;;;;;;25.05;18.83;;;19.30;99.90;;;;;;4992018;28;20498;-70
2021/07/14 04:35:33;;;;;;;22.27;18.00;;;19.30;99.90;;;;;;4988875;28;20109;-69
2021/07/14 04:37:59;;;;;;;22.27;18.83;;;19.30;99.90;;;;;;4979129;28;20566;-69
2021/07/14 04:40:25;;;;;;;25.17;18.17;;;19.30;99.90;;;;;;4984046;28;20097;-73
2021/07/14 04:42:51;;;;;;;26.15;18.45;;;19.30;99.90;;;;;;4974208;28;20038;-70
2021/07/14 04:45:18;;;;;;;21.52;15.77;;;19.30;99.90;;;;;;4973919;28;20038;-88
2021/07/14 04:47:44;;;;;;;23.63;17.30;;;19.30;99.90;;;;;;4974723;28;20034;-70
2021/07/14 04:50:10;;;;;;;21.15;17.40;;;19.30;99.90;;;;;;4993920;28;20482;-86
2021/07/14 04:52:35;;;;;;;20.35;16.40;;;19.30;99.90;;;;;;4991770;28;20043;-86
2021/07/14 04:55:01;;;;;;;20.55;14.50;;;19.30;99.90;;;;;;4976753;28;20050;-77
2021/07/14 04:57:27;;;;;;;21.50;17.15;;;19.30;99.90;;;;;;4993240;28;20451;-70
2021/07/14 04:59:52;;;;;;;19.83;15.77;;;19.40;99.90;;;;;;4976091;28;20025;-72
2021/07/14 05:02:18;;;;;;;20.95;16.25;;;19.40;99.90;;;;;;4980809;28;20364;-69
2021/07/14 05:04:43;;;;;;;20.70;15.48;;;19.40;99.90;;;;;;4962495;28;20023;-83
2021/07/14 05:07:09;;;;;;;19.05;15.23;;;19.40;99.90;;;;;;4963468;28;20530;-70
2021/07/14 05:09:34;;;;;;;22.35;15.50;;;19.40;99.90;;;;;;4986017;28;20035;-69
2021/07/14 05:12:00;;;;;;;21.65;15.00;;;19.40;99.90;;;;;;4963687;28;20372;-70
2021/07/14 05:14:26;;;;;;;19.38;14.43;;;19.40;99.90;;;;;;4984983;28;20019;-69
2021/07/14 05:16:52;;;;;;;17.17;13.88;;;19.40;99.90;;;;;;4974400;28;20045;-70
2021/07/14 05:19:18;;;;;;;21.65;15.00;;;19.40;99.90;;;;;;4992243;28;20101;-69
2021/07/14 05:21:44;;;;;;;21.70;16.98;;;19.40;99.90;;;;;;4982399;28;20041;-69
2021/07/14 05:24:10;;;;;;;16.77;14.38;;;19.40;99.90;;;;;;4985436;28;20030;-69
2021/07/14 05:26:37;;;;;;;17.75;13.88;;;19.50;99.90;;;;;;4988526;28;20058;-69
2021/07/14 05:29:03;;;;;;;17.80;14.85;;;19.50;99.90;;;;;;4973774;28;20034;-70
2021/07/14 05:31:29;;;;;;;18.52;14.13;;;19.60;99.90;;;;;;4974382;28;20030;-77
2021/07/14 05:33:55;;;;;;;22.25;15.27;;;19.60;99.90;;;;;;4993896;28;20717;-77
2021/07/14 05:36:21;;;;;;;18.15;15.23;;;19.50;99.90;;;;;;4962800;28;20070;-79
2021/07/14 05:38:46;;;;;;;20.55;15.88;;;19.60;99.90;;;;;;4993091;28;20363;-82
2021/07/14 05:41:12;;;;;;;19.10;14.48;;;19.60;99.90;;;;;;4974587;28;20466;-76
2021/07/14 05:43:38;;;;;;;22.90;14.02;;;19.50;99.90;;;;;;4993100;28;20034;-73
2021/07/14 05:46:04;;;;;;;18.60;14.32;;;19.60;99.90;;;;;;4961404;28;20018;-70
2021/07/14 05:48:29;;;;;;;17.33;13.02;;;19.60;99.90;;;;;;4990894;28;20034;-73
2021/07/14 05:50:56;;;;;;;16.35;13.32;;;19.70;99.90;;;;;;4969170;28;20121;-71
2021/07/14 05:53:23;;;;;;;16.88;14.93;;;19.70;99.90;;;;;;4981498;28;20895;-71
2021/07/14 05:55:49;;;;;;;15.80;13.13;;;19.80;99.90;;;;;;4982975;28;20027;-70
2021/07/14 05:58:15;;;;;;;19.77;14.43;;;19.80;99.90;;;;;;4981868;28;20031;-75
2021/07/14 06:00:41;;;;;;;16.58;13.27;;;19.90;99.90;;;;;;4988993;28;20475;-72
2021/07/14 06:03:07;;;;;;;15.15;13.38;;;19.90;99.90;;;;;;4974866;28;20038;-71
2021/07/14 06:05:34;;;;;;;18.75;14.57;;;19.90;99.90;;;;;;4996090;28;20026;-72
2021/07/14 06:07:59;;;;;;;16.30;13.13;;;20.00;99.90;;;;;;4979447;28;20033;-71
2021/07/14 06:10:25;;;;;;;18.02;14.05;;;20.00;99.90;;;;;;4983223;28;20407;-72
2021/07/14 06:12:56;;;;;;;18.58;15.15;;;20.00;99.90;;;;;;4977144;28;20038;-72
2021/07/14 06:15:25;;;;;;;16.65;14.35;;;20.00;99.90;;;;;;4976517;28;20057;-71
2021/07/14 06:17:51;;;;;;;17.73;15.15;;;20.00;99.90;;;;;;4978795;28;20027;-77
2021/07/14 06:20:17;;;;;;;17.83;15.60;;;20.20;99.90;;;;;;4980240;28;20078;-72
2021/07/14 06:22:43;;;;;;;19.75;15.45;;;20.20;99.90;;;;;;4988536;28;20030;-71
2021/07/14 06:25:10;;;;;;;16.15;14.52;;;20.30;99.90;;;;;;4995215;28;20027;-71
2021/07/14 06:27:36;;;;;;;16.45;14.48;;;20.40;99.90;;;;;;4990553;28;20029;-73
2021/07/14 06:30:05;;;;;;;18.67;15.13;;;20.50;99.90;;;;;;4995836;28;20034;-71
2021/07/14 06:32:32;;;;;;;18.92;14.63;;;20.60;99.90;;;;;;4987362;28;20126;-78
2021/07/14 06:35:01;;;;;;;16.83;15.15;;;20.70;99.90;;;;;;4995859;28;20482;-70
2021/07/14 06:37:27;;;;;;;17.23;15.38;;;20.70;99.90;;;;;;4988856;28;20034;-74
2021/07/14 06:39:53;;;;;;;18.98;15.20;;;20.70;99.90;;;;;;4979618;28;20064;-87
2021/07/14 06:42:19;;;;;;;18.38;15.75;;;20.80;99.90;;;;;;4979013;28;20035;-72
2021/07/14 06:44:45;;;;;;;17.20;15.00;;;20.90;99.90;;;;;;4994421;28;20023;-89
2021/07/14 06:47:10;;;;;;;15.95;13.82;;;20.90;99.90;;;;;;4996458;28;20034;-85
2021/07/14 06:49:36;;;;;;;14.25;12.57;;;21.00;99.90;;;;;;4996367;28;20033;-70
2021/07/14 06:52:01;;;;;;;14.35;12.95;;;21.00;99.90;;;;;;4996113;28;20050;-69
2021/07/14 06:54:28;;;;;;;13.57;12.10;;;20.90;99.90;;;;;;4995837;28;20030;-85
2021/07/14 06:56:54;;;;;;;15.50;13.55;;;21.00;99.90;;;;;;4996429;28;20077;-70
2021/07/14 06:59:20;;;;;;;14.50;13.10;;;21.10;99.90;;;;;;4995365;28;20093;-87
2021/07/14 07:01:45;;;;;;;16.50;13.50;;;21.20;99.90;;;;;;4996441;28;20030;-69
2021/07/14 07:04:11;;;;;;;14.23;12.65;;;21.10;99.90;;;;;;4996116;28;20069;-69
2021/07/14 07:06:36;;;;;;;13.80;12.15;;;21.10;99.90;;;;;;4994630;28;20478;-93
2021/07/14 07:09:04;;;;;;;13.98;12.50;;;21.10;99.90;;;;;;4996654;28;20028;-69
2021/07/14 07:11:34;;;;;;;16.00;13.60;;;21.10;99.90;;;;;;4996449;28;20062;-75
2021/07/14 07:14:00;;;;;;;14.45;12.80;;;21.10;99.90;;;;;;4995796;28;20094;-70
2021/07/14 07:16:26;;;;;;;14.45;12.95;;;21.10;99.90;;;;;;4995812;28;20109;-78
2021/07/14 07:18:51;;;;;;;16.90;12.98;;;21.00;99.90;;;;;;4996319;28;20027;-70
2021/07/14 07:21:17;;;;;;;18.13;14.95;;;20.90;99.90;;;;;;4977758;28;20076;-83
2021/07/14 07:23:45;;;;;;;20.13;15.65;;;20.80;99.90;;;;;;4996455;28;20022;-69
2021/07/14 07:26:12;;;;;;;17.65;15.77;;;20.80;99.90;;;;;;4995789;28;20019;-69
2021/07/14 07:28:41;;;;;;;18.13;15.30;;;20.80;99.90;;;;;;4996007;28;20027;-69
2021/07/14 07:31:09;;;;;;;18.48;16.52;;;20.80;99.90;;;;;;4995549;28;20156;-73
2021/07/14 07:33:35;;;;;;;19.98;16.75;;;20.80;99.90;;;;;;4995206;28;20549;-75
2021/07/14 07:36:01;;;;;;;20.15;16.63;;;20.80;99.90;;;;;;4995907;28;20038;-90
2021/07/14 07:38:27;;;;;;;17.05;15.00;;;20.90;99.90;;;;;;4995734;28;20022;-69
2021/07/14 07:40:54;;;;;;;16.40;14.68;;;21.00;99.90;;;;;;4995008;28;20054;-92
2021/07/14 07:43:21;;;;;;;17.83;15.95;;;21.00;99.90;;;;;;4979066;28;20344;-73
2021/07/14 07:45:46;;;;;;;17.98;15.68;;;21.00;99.90;;;;;;4996092;28;20028;-80
2021/07/14 07:48:12;;;;;;;17.55;15.75;;;21.00;99.90;;;;;;4994823;28;20094;-69
2021/07/14 07:50:38;;;;;;;17.80;15.90;;;21.10;99.90;;;;;;4995423;28;20096;-89
2021/07/14 07:53:04;;;;;;;20.95;16.27;;;21.00;99.90;;;;;;4995592;28;20135;-69
2021/07/14 07:55:29;;;;;;;19.65;16.52;;;21.00;99.90;;;;;;4994939;28;20047;-70
2021/07/14 07:57:55;;;;;;;23.63;19.33;;;21.00;99.90;;;;;;4995751;28;20426;-90
2021/07/14 08:00:21;;;;;;;19.95;16.95;;;20.90;99.90;;;;;;4995346;28;20025;-69
2021/07/14 08:02:47;;;;;;;26.33;20.48;;;20.90;99.90;;;;;;4995418;28;20061;-92
2021/07/14 08:05:13;;;;;;;25.33;19.65;;;20.80;99.90;;;;;;4995165;28;20049;-71
2021/07/14 08:07:39;;;;;;;24.10;20.25;;;20.80;99.90;;;;;;4979133;28;20034;-69
2021/07/14 08:10:06;;;;;;;23.88;19.65;;;20.70;99.90;;;;;;4995680;28;20029;-93
2021/07/14 08:12:32;;;;;;;22.95;19.13;;;20.80;99.90;;;;;;4995192;28;20081;-81
2021/07/14 08:14:58;;;;;;;24.52;18.73;;;20.90;99.90;;;;;;4995164;28;20046;-69
2021/07/14 08:17:23;;;;;;;23.92;19.08;;;20.90;99.90;;;;;;4994160;28;20077;-84
2021/07/14 08:19:50;;;;;;;23.33;18.88;;;20.90;99.90;;;;;;4995184;28;20022;-90
2021/07/14 08:22:16;;;;;;;24.60;20.17;;;21.00;99.90;;;;;;4994850;28;20022;-80
2021/07/14 08:24:42;;;;;;;24.02;19.33;;;21.00;99.90;;;;;;4994305;28;20027;-81
2021/07/14 08:27:07;;;;;;;22.75;18.33;;;21.10;99.90;;;;;;4994780;28;20034;-93
2021/07/14 08:29:33;;;;;;;27.20;19.30;;;21.10;99.90;;;;;;4994289;28;20475;-78
2021/07/14 08:31:58;;;;;;;24.02;17.95;;;21.10;99.90;;;;;;4994847;28;20045;-70
2021/07/14 08:34:24;;;;;;;22.58;17.05;;;21.10;99.90;;;;;;4994563;28;20022;-92
2021/07/14 08:36:50;;;;;;;21.65;18.02;;;21.10;99.90;;;;;;4993990;28;20029;-91
2021/07/14 08:39:15;;;;;;;23.00;19.15;;;21.10;99.90;;;;;;4977074;28;20022;-70
2021/07/14 08:41:44;;;;;;;19.60;17.38;;;21.20;99.90;;;;;;4977430;28;20022;-90
2021/07/14 08:44:13;;;;;;;21.27;16.90;;;21.10;99.90;;;;;;4993756;28;20036;-69
2021/07/14 08:46:39;;;;;;;18.17;16.02;;;21.10;99.90;;;;;;4994699;28;20033;-70
2021/07/14 08:49:06;;;;;;;19.50;15.80;;;21.10;99.90;;;;;;4994148;28;20030;-91
2021/07/14 08:51:37;;;;;;;17.20;15.40;;;21.10;99.90;;;;;;4993771;28;20040;-69
2021/07/14 08:54:04;;;;;;;17.92;15.98;;;21.10;99.90;;;;;;4994320;28;20026;-69
2021/07/14 08:56:30;;;;;;;18.98;16.13;;;21.10;99.90;;;;;;4994395;28;20023;-70
2021/07/14 08:58:56;;;;;;;20.08;16.63;;;21.10;99.90;;;;;;4993713;28;20053;-70
2021/07/14 09:01:22;;;;;;;17.60;15.75;;;21.00;99.90;;;;;;4976824;28;20018;-69
2021/07/14 09:03:48;;;;;;;17.27;15.48;;;21.00;99.90;;;;;;4976982;28;20023;-69
2021/07/14 09:06:13;;;;;;;18.45;15.65;;;21.00;99.90;;;;;;4993101;28;20023;-72
2021/07/14 09:08:39;;;;;;;18.13;15.80;;;21.10;99.90;;;;;;4994249;28;20050;-69
2021/07/14 09:11:06;;;;;;;16.15;14.10;;;21.20;99.90;;;;;;4993804;28;20471;-69
2021/07/14 09:13:42;;;;;;;19.20;16.33;;;21.30;99.90;;;;;;4993679;28;20459;-68
2021/07/14 09:16:08;;;;;;;19.30;16.10;;;21.30;99.90;;;;;;4993741;28;20050;-83
2021/07/14 09:18:34;;;;;;;21.23;15.60;;;21.40;99.90;;;;;;4994597;28;20045;-69
2021/07/14 09:21:02;;;;;;;20.40;14.85;;;21.60;99.90;;;;;;4993009;28;20018;-69
2021/07/14 09:23:32;;;;;;;18.48;16.48;;;21.70;99.90;;;;;;4993941;28;20018;-84
2021/07/14 09:25:59;;;;;;;18.92;16.02;;;21.70;99.90;;;;;;4993041;28;20053;-69
2021/07/14 09:28:34;;;;;;;16.70;14.52;;;21.70;99.90;;;;;;4976007;28;20037;-77
2021/07/14 09:31:05;;;;;;;18.08;15.50;;;21.60;99.90;;;;;;4993175;28;20109;-76
2021/07/14 09:33:31;;;;;;;19.60;16.42;;;21.60;99.90;;;;;;4993455;28;20023;-70
2021/07/14 09:35:58;;;;;;;17.27;15.57;;;21.50;99.90;;;;;;4993886;28;20042;-90
2021/07/14 09:38:32;;;;;;;20.38;16.83;;;21.50;99.90;;;;;;4993429;28;20109;-70
2021/07/14 09:41:06;;;;;;;18.42;16.48;;;21.40;99.90;;;;;;4993056;28;20029;-69
2021/07/14 09:43:34;;;;;;;18.98;16.77;;;21.40;99.90;;;;;;4976227;28;20026;-88
2021/07/14 09:46:01;;;;;;;18.45;16.17;;;21.30;99.90;;;;;;4993590;28;20066;-80
2021/07/14 09:48:29;;;;;;;19.42;15.95;;;21.30;99.90;;;;;;4992629;28;20081;-85
2021/07/14 09:50:56;;;;;;;18.00;14.88;;;21.40;99.90;;;;;;4993390;28;20126;-81
2021/07/14 09:53:25;;;;;;;18.10;16.08;;;21.50;99.90;;;;;;4993714;28;20398;-69
2021/07/14 09:55:55;;;;;;;19.60;16.13;;;21.60;99.90;;;;;;4992976;28;20077;-68
2021/07/14 09:58:24;;;;;;;21.48;18.63;;;21.50;99.90;;;;;;4976126;28;20026;-87
2021/07/14 10:00:52;;;;;;;23.30;18.70;;;21.50;99.90;;;;;;4993634;28;20424;-89
2021/07/14 10:03:23;;;;;;;21.60;19.35;;;21.50;99.90;;;;;;4992552;28;20030;-70
2021/07/14 10:05:50;;;;;;;22.13;18.42;;;21.50;99.90;;;;;;4975992;28;20055;-68
2021/07/14 10:08:20;;;;;;;23.00;19.08;;;21.50;99.90;;;;;;4975051;28;20379;-69
2021/07/14 10:10:48;;;;;;;21.63;19.27;;;21.50;99.90;;;;;;4993688;28;20010;-91
2021/07/14 10:13:14;;;;;;;25.05;20.33;;;21.60;99.90;;;;;;4975784;28;20497;-68
2021/07/14 10:15:40;;;;;;;22.95;19.25;;;21.60;99.90;;;;;;4992894;28;20043;-75
2021/07/14 10:18:13;;;;;;;22.20;18.83;;;21.60;99.90;;;;;;4976710;28;20394;-69
2021/07/14 10:20:41;;;;;;;22.02;19.65;;;21.70;99.90;;;;;;4977140;28;20093;-69
2021/07/14 10:23:11;;;;;;;27.15;20.27;;;21.60;99.90;;;;;;4992882;28;20018;-68
2021/07/14 10:25:39;;;;;;;25.55;19.17;;;21.70;99.90;;;;;;4993584;28;20072;-69
2021/07/14 10:28:07;;;;;;;25.52;19.55;;;21.70;99.90;;;;;;4976267;28;20018;-68
2021/07/14 10:30:33;;;;;;;21.80;18.85;;;21.70;99.90;;;;;;4993099;28;20038;-77
2021/07/14 10:32:59;;;;;;;20.65;18.38;;;21.60;99.90;;;;;;4993381;28;20078;-69
2021/07/14 10:35:31;;;;;;;24.95;17.98;;;21.60;99.90;;;;;;4993755;28;20037;-69
2021/07/14 10:37:59;;;;;;;26.83;19.42;;;21.50;99.90;;;;;;4976001;28;20463;-95
2021/07/14 10:40:26;;;;;;;25.95;19.55;;;21.40;99.90;;;;;;4994076;28;20033;-70
2021/07/14 10:42:53;;;;;;;25.05;19.92;;;21.30;99.90;;;;;;4980602;28;20113;-70
2021/07/14 10:45:19;;;;;;;23.92;19.30;;;21.20;99.90;;;;;;4996833;28;20117;-69
2021/07/14 10:47:45;;;;;;;24.98;19.55;;;21.10;99.90;;;;;;4989129;23;20526;-69
2021/07/14 10:50:12;;;;;;;25.98;20.15;;;21.00;99.90;;;;;;4977003;28;20026;-71
2021/07/14 10:52:39;;;;;;;24.98;20.00;;;21.00;99.90;;;;;;4978379;28;20059;-71
2021/07/14 10:55:09;;;;;;;23.38;19.00;;;21.00;99.90;;;;;;4962122;28;20135;-69
2021/07/14 10:57:36;;;;;;;24.88;18.13;;;21.00;99.90;;;;;;4978325;28;20041;-83
2021/07/14 11:00:07;;;;;;;24.15;18.55;;;21.00;99.90;;;;;;4981718;28;20019;-69
2021/07/14 11:02:47;;;;;;;26.98;17.27;;;20.90;99.90;;;;;;4978409;28;20431;-69
2021/07/14 11:05:14;;;;;;;20.60;16.83;;;21.10;99.90;;;;;;4977625;28;20033;-69
2021/07/14 11:07:45;;;;;;;20.23;16.02;;;21.40;99.90;;;;;;4977468;28;20122;-69
2021/07/14 11:10:35;;;;;;;23.77;17.40;;;21.50;99.90;;;;;;4978406;28;20494;-69
2021/07/14 11:13:28;;;;;;;27.10;18.17;;;21.50;99.90;;;;;;4977709;28;20034;-69
2021/07/14 11:15:55;;;;;;;22.58;17.83;;;21.40;99.90;;;;;;4960699;28;20027;-70
2021/07/14 11:18:29;;;;;;;23.80;17.35;;;21.30;99.90;;;;;;4976522;28;20475;-70
2021/07/14 11:20:59;;;;;;;19.70;16.70;;;21.10;99.90;;;;;;4978904;28;20106;-69
2021/07/14 11:23:27;;;;;;;22.73;16.00;;;21.10;99.90;;;;;;4977319;28;20027;-69
2021/07/14 11:25:57;;;;;;;21.98;17.42;;;21.10;99.90;;;;;;4978363;28;20027;-69
2021/07/14 11:28:24;;;;;;;21.65;16.55;;;21.10;99.90;;;;;;4980236;28;20038;-84
2021/07/14 11:30:53;;;;;;;23.48;17.48;;;21.10;99.90;;;;;;4978489;28;20050;-71
2021/07/14 11:33:21;;;;;;;22.02;17.25;;;21.10;99.90;;;;;;4961624;28;20037;-92
2021/07/14 11:35:51;;;;;;;21.15;16.58;;;21.00;99.90;;;;;;4977961;28;20027;-69
2021/07/14 11:38:45;;;;;;;21.25;17.67;;;21.00;99.90;;;;;;4977273;28;20027;-78
2021/07/14 11:41:20;;;;;;;22.85;16.88;;;21.00;99.90;;;;;;4975333;28;20039;-75
2021/07/14 11:43:47;;;;;;;21.98;16.52;;;20.90;99.90;;;;;;4979509;28;20034;-95
2021/07/14 11:46:15;;;;;;;23.23;17.08;;;20.90;99.90;;;;;;4977779;28;20380;-85
2021/07/14 11:48:44;;;;;;;19.75;17.00;;;20.80;99.90;;;;;;4975461;28;20042;-68
2021/07/14 11:51:15;;;;;;;23.48;18.00;;;20.90;99.90;;;;;;4975512;28;20038;-68
2021/07/14 11:53:43;;;;;;;22.58;18.50;;;20.90;99.90;;;;;;4974776;28;20027;-91
2021/07/14 11:56:15;;;;;;;24.65;17.20;;;20.90;99.90;;;;;;4958606;28;20035;-69
2021/07/14 11:58:57;;;;;;;25.95;18.65;;;21.00;99.90;;;;;;4975975;28;20023;-69
2021/07/14 12:01:26;;;;;;;22.55;17.25;;;21.10;99.90;;;;;;4975068;28;20030;-70
2021/07/14 12:04:07;;;;;;;23.10;17.48;;;21.00;99.90;;;;;;4975978;28;20027;-70
2021/07/14 12:06:42;;;;;;;;;;;21.10;99.90;;;;;;4976310;28;20055;-69
2021/07/14 12:09:13;;;;;;;21.10;17.65;;;21.00;99.90;;;;;;4974951;28;19914;-70
2021/07/14 12:11:53;;;;;;;21.52;17.92;;;21.10;99.90;;;;;;4976081;28;20387;-96
2021/07/14 12:14:24;;;;;;;21.85;17.27;;;21.20;99.90;;;;;;4975450;28;20029;-96
2021/07/14 12:16:57;;;;;;;23.92;18.15;;;21.20;99.90;;;;;;4974952;28;20487;-70
2021/07/14 12:19:27;;;;;;;24.52;17.83;;;21.20;99.90;;;;;;4975219;28;20029;-70
2021/07/14 12:21:55;;;;;;;20.17;16.10;;;21.10;99.90;;;;;;4975111;28;20015;-70
2021/07/14 12:24:45;;;;;;;21.98;17.63;;;21.10;99.90;;;;;;4975223;28;20475;-70
2021/07/14 12:27:21;;;;;;;19.77;15.95;;;21.10;99.90;;;;;;4975453;28;20118;-70
2021/07/14 12:29:51;;;;;;;23.05;16.13;;;21.10;99.90;;;;;;4976067;28;20486;-69
2021/07/14 12:32:26;;;;;;;23.52;17.95;;;21.20;99.90;;;;;;4978548;28;20045;-96
2021/07/14 12:34:52;;;;;;;22.80;16.88;;;21.20;99.90;;;;;;4977396;28;20030;-68
2021/07/14 12:37:17;;;;;;;21.30;16.42;;;21.30;99.90;;;;;;4975874;28;20034;-70
2021/07/14 12:39:44;;;;;;;20.58;16.02;;;21.40;99.90;;;;;;4975427;28;20384;-94